Time;durP1;ratioP1;P1;durP2;ratioP2;P2;SDS_P1;SDS_P2;PMS_P1;PMS_P2;Temp;Humidity;BMP_temperature;BMP_pressure;BME280_temperature;BME280_humidity;BME280_pressure;Samples;Min_cycle;Max_cycle;Signal;HPM_P1;HPM_P2
2022/08/15 00:03:31;;;;;;;7.53;6.80;;;;;;;;;;10341617;28;20065;-74
2022/08/15 00:08:34;;;;;;;7.47;6.78;;;;;;;;;;10349598;28;20460;-74
2022/08/15 00:13:34;;;;;;;8.02;7.03;;;;;;;;;;10330941;28;20054;-75
2022/08/15 00:18:34;;;;;;;7.82;7.13;;;;;;;;;;10348983;28;20785;-74
2022/08/15 00:23:35;;;;;;;8.27;7.27;;;;;;;;;;10351712;28;20768;-74
2022/08/15 00:28:35;;;;;;;7.15;6.45;;;;;;;;;;10348557;28;20573;-74
2022/08/15 00:33:36;;;;;;;7.13;6.43;;;;;;;;;;10356160;28;20073;-74
2022/08/15 00:38:36;;;;;;;7.25;6.05;;;;;;;;;;10346125;28;20485;-73
2022/08/15 00:43:40;;;;;;;7.03;6.32;;;;;;;;;;10337749;28;20045;-76
2022/08/15 00:48:43;;;;;;;7.55;6.40;;;;;;;;;;10353073;28;20046;-75
2022/08/15 00:53:46;;;;;;;7.40;6.45;;;;;;;;;;10321268;28;20417;-74
2022/08/15 00:58:47;;;;;;;8.43;6.75;;;;;;;;;;10347032;28;20097;-74
2022/08/15 01:03:48;;;;;;;8.48;6.00;;;;;;;;;;10360865;28;20338;-73
2022/08/15 01:08:51;;;;;;;6.93;6.22;;;;;;;;;;10358048;28;20046;-75
2022/08/15 01:13:53;;;;;;;6.88;6.18;;;;;;;;;;10350100;28;20050;-74
2022/08/15 01:18:53;;;;;;;6.78;6.18;;;;;;;;;;10326110;28;20065;-74
2022/08/15 01:24:30;;;;;;;7.77;6.97;;;;;;;;;;10351561;28;20580;-74
2022/08/15 01:29:31;;;;;;;6.85;6.25;;;;;;;;;;10244560;28;20404;-75
2022/08/15 01:34:32;;;;;;;9.00;7.05;;;;;;;;;;10369114;28;20366;-76
2022/08/15 01:39:53;;;;;;;7.55;6.85;;;;;;;;;;10345116;28;20040;-73
2022/08/15 01:44:56;;;;;;;7.45;6.47;;;;;;;;;;10359255;28;20073;-75
2022/08/15 01:50:07;;;;;;;8.07;7.28;;;;;;;;;;10357264;28;20042;-74
2022/08/15 01:55:09;;;;;;;7.80;7.00;;;;;;;;;;10356690;28;20042;-75
2022/08/15 02:00:10;;;;;;;7.67;6.97;;;;;;;;;;10332713;28;20049;-74
2022/08/15 02:05:14;;;;;;;7.80;7.00;;;;;;;;;;10362544;28;20048;-74
2022/08/15 02:10:14;;;;;;;8.65;7.13;;;;;;;;;;10364231;28;20042;-74
2022/08/15 02:15:17;;;;;;;7.90;6.95;;;;;;;;;;10339720;28;20547;-73
2022/08/15 02:20:19;;;;;;;7.82;7.07;;;;;;;;;;10341027;28;20100;-74
2022/08/15 02:25:20;;;;;;;7.35;6.50;;;;;;;;;;10356437;28;20050;-75
2022/08/15 02:30:23;;;;;;;8.25;6.90;;;;;;;;;;10357888;28;20041;-74
2022/08/15 02:35:23;;;;;;;8.27;7.40;;;;;;;;;;10352530;28;20069;-73
2022/08/15 02:40:24;;;;;;;8.18;7.38;;;;;;;;;;10354796;28;20046;-73
2022/08/15 02:45:24;;;;;;;7.68;6.88;;;;;;;;;;10355644;28;20133;-73
2022/08/15 02:50:25;;;;;;;9.27;7.80;;;;;;;;;;10337324;28;20046;-75
2022/08/15 02:55:26;;;;;;;9.10;8.15;;;;;;;;;;10321719;28;20110;-73
2022/08/15 03:00:28;;;;;;;10.77;7.70;;;;;;;;;;10352401;28;20045;-74
2022/08/15 03:05:38;;;;;;;8.68;7.70;;;;;;;;;;10344504;28;20053;-73
2022/08/15 03:10:39;;;;;;;9.15;8.25;;;;;;;;;;10325398;28;20486;-73
2022/08/15 03:15:41;;;;;;;9.07;7.60;;;;;;;;;;10339790;28;20065;-73
2022/08/15 03:20:45;;;;;;;8.68;7.78;;;;;;;;;;10330719;28;20047;-73
2022/08/15 03:25:49;;;;;;;8.43;7.63;;;;;;;;;;10350553;28;20038;-74
2022/08/15 03:30:51;;;;;;;9.77;8.15;;;;;;;;;;10342373;28;20516;-77
2022/08/15 03:35:52;;;;;;;8.40;7.47;;;;;;;;;;10348613;28;20054;-74
2022/08/15 03:40:54;;;;;;;8.88;7.85;;;;;;;;;;10330636;28;20173;-74
2022/08/15 03:45:58;;;;;;;8.10;7.38;;;;;;;;;;10331732;28;20419;-72
2022/08/15 03:51:01;;;;;;;9.10;8.20;;;;;;;;;;10346420;28;20041;-72
2022/08/15 03:56:06;;;;;;;9.68;8.63;;;;;;;;;;10321778;28;20924;-73
2022/08/15 04:01:11;;;;;;;9.65;8.18;;;;;;;;;;10326848;28;20081;-74
2022/08/15 04:06:13;;;;;;;9.50;8.60;;;;;;;;;;10329042;28;20138;-74
2022/08/15 04:11:14;;;;;;;8.90;8.00;;;;;;;;;;10345614;28;20042;-74
2022/08/15 04:16:17;;;;;;;10.00;8.70;;;;;;;;;;10350214;28;20102;-74
2022/08/15 04:21:18;;;;;;;13.80;8.43;;;;;;;;;;10348206;28;20121;-72
2022/08/15 04:26:19;;;;;;;9.88;8.20;;;;;;;;;;10351658;28;20050;-72
2022/08/15 04:31:20;;;;;;;10.10;8.63;;;;;;;;;;10355428;28;20513;-73
2022/08/15 04:36:22;;;;;;;9.65;8.15;;;;;;;;;;10352655;28;20061;-71
2022/08/15 04:41:24;;;;;;;;;;;;;;;;;;10344661;28;20210;-70
2022/08/15 04:46:25;;;;;;;10.60;9.27;;;;;;;;;;10342554;28;19917;-71
2022/08/15 04:51:27;;;;;;;11.05;8.73;;;;;;;;;;10327566;28;20041;-70
2022/08/15 04:56:27;;;;;;;10.52;9.00;;;;;;;;;;10360130;28;20049;-70
2022/08/15 05:01:28;;;;;;;10.18;8.52;;;;;;;;;;10336789;28;20038;-71
2022/08/15 05:06:28;;;;;;;9.98;8.85;;;;;;;;;;10366485;28;20038;-70
2022/08/15 05:11:30;;;;;;;9.50;7.90;;;;;;;;;;10349085;28;20081;-70
2022/08/15 05:16:33;;;;;;;8.32;7.45;;;;;;;;;;10365910;28;20045;-72
2022/08/15 05:21:35;;;;;;;9.20;7.63;;;;;;;;;;10365670;28;20045;-69
2022/08/15 05:26:36;;;;;;;8.50;7.65;;;;;;;;;;10345230;28;20536;-72
2022/08/15 05:31:38;;;;;;;9.25;7.05;;;;;;;;;;10344829;28;20077;-70
2022/08/15 05:36:43;;;;;;;7.38;6.68;;;;;;;;;;10336270;28;20054;-71
2022/08/15 05:41:52;;;;;;;7.55;6.40;;;;;;;;;;10359907;28;20060;-70
2022/08/15 05:46:58;;;;;;;9.13;6.88;;;;;;;;;;10350613;28;20069;-69
2022/08/15 05:52:07;;;;;;;10.18;6.47;;;;;;;;;;10357671;28;20049;-70
2022/08/15 05:57:17;;;;;;;8.60;6.72;;;;;;;;;;10342764;28;20497;-69
2022/08/15 06:02:28;;;;;;;6.07;5.47;;;;;;;;;;10347351;28;20053;-70
2022/08/15 06:07:29;;;;;;;9.48;5.68;;;;;;;;;;10329788;28;20060;-70
2022/08/15 06:12:32;;;;;;;6.95;5.43;;;;;;;;;;10345932;28;20141;-70
2022/08/15 06:17:39;;;;;;;5.28;4.68;;;;;;;;;;10342115;28;20050;-71
2022/08/15 06:22:40;;;;;;;5.88;4.10;;;;;;;;;;10347669;28;20094;-71
2022/08/15 06:27:59;;;;;;;6.67;4.70;;;;;;;;;;10331266;28;20456;-72
2022/08/15 06:33:23;;;;;;;6.30;4.00;;;;;;;;;;10352177;28;20290;-71
2022/08/15 06:38:24;;;;;;;5.10;4.15;;;;;;;;;;10318325;28;20046;-70
2022/08/15 06:43:24;;;;;;;4.45;3.55;;;;;;;;;;10362661;28;20085;-72
2022/08/15 06:48:39;;;;;;;5.70;4.47;;;;;;;;;;10343802;28;20405;-70
2022/08/15 06:53:44;;;;;;;5.38;4.20;;;;;;;;;;10340752;28;20508;-71
2022/08/15 06:58:55;;;;;;;8.27;4.45;;;;;;;;;;10339608;28;20052;-69
2022/08/15 07:03:57;;;;;;;5.97;3.75;;;;;;;;;;10353555;28;20056;-70
2022/08/15 07:09:17;;;;;;;4.22;3.80;;;;;;;;;;10351623;28;20058;-70
2022/08/15 07:14:27;;;;;;;4.80;3.78;;;;;;;;;;10350468;28;20050;-71
2022/08/15 07:19:29;;;;;;;4.07;3.60;;;;;;;;;;10346646;28;20064;-70
2022/08/15 07:24:56;;;;;;;7.68;3.97;;;;;;;;;;10360035;28;20049;-71
2022/08/15 07:30:00;;;;;;;5.95;4.00;;;;;;;;;;10360962;28;20105;-71
2022/08/15 07:35:12;;;;;;;6.32;4.95;;;;;;;;;;10341860;28;20452;-70
2022/08/15 07:40:18;;;;;;;5.00;4.38;;;;;;;;;;10361118;28;20526;-70
2022/08/15 07:45:20;;;;;;;5.80;4.18;;;;;;;;;;10343641;28;20041;-71
2022/08/15 07:50:21;;;;;;;5.82;4.13;;;;;;;;;;10352407;28;20133;-72
2022/08/15 07:55:22;;;;;;;5.53;3.85;;;;;;;;;;10361229;28;20049;-71
2022/08/15 08:00:25;;;;;;;7.13;4.30;;;;;;;;;;10353364;28;20049;-70
2022/08/15 08:05:44;;;;;;;4.75;4.10;;;;;;;;;;10336500;28;20052;-71
2022/08/15 08:10:50;;;;;;;6.20;4.18;;;;;;;;;;10353932;28;20058;-73
2022/08/15 08:16:00;;;;;;;5.90;3.90;;;;;;;;;;10356145;28;20092;-73
2022/08/15 08:21:03;;;;;;;6.03;3.42;;;;;;;;;;10353444;28;20038;-70
2022/08/15 08:26:10;;;;;;;4.63;3.72;;;;;;;;;;10336006;28;20038;-71
2022/08/15 08:31:23;;;;;;;6.63;3.97;;;;;;;;;;10343680;28;20116;-72
2022/08/15 08:36:32;;;;;;;4.18;3.78;;;;;;;;;;10342713;28;20042;-72
2022/08/15 08:41:51;;;;;;;4.60;3.35;;;;;;;;;;10339894;28;20120;-72
2022/08/15 08:46:51;;;;;;;4.30;3.78;;;;;;;;;;10345692;28;20469;-72
2022/08/15 08:51:57;;;;;;;8.87;4.03;;;;;;;;;;10359405;28;20061;-72
2022/08/15 08:57:00;;;;;;;5.72;3.60;;;;;;;;;;10356938;28;20148;-72
2022/08/15 09:02:15;;;;;;;4.65;3.63;;;;;;;;;;10345835;28;20194;-71
2022/08/15 09:07:30;;;;;;;5.65;3.30;;;;;;;;;;10355404;28;20137;-72
2022/08/15 09:17:56;;;;;;;5.53;4.00;;;;;;;;;;10351412;28;20381;-72
2022/08/15 09:22:56;;;;;;;4.22;3.83;;;;;;;;;;10351232;28;20829;-72
2022/08/15 09:28:03;;;;;;;4.97;4.37;;;;;;;;;;10361517;28;20050;-72
2022/08/15 09:33:29;;;;;;;4.88;4.00;;;;;;;;;;10352754;28;20462;-73
2022/08/15 09:38:37;;;;;;;4.47;4.00;;;;;;;;;;10363650;28;20493;-74
2022/08/15 09:44:04;;;;;;;6.15;3.75;;;;;;;;;;10361677;28;20100;-72
2022/08/15 09:49:07;;;;;;;3.63;3.33;;;;;;;;;;10332175;28;20041;-75
2022/08/15 09:54:15;;;;;;;4.18;3.60;;;;;;;;;;10355981;28;20449;-74
2022/08/15 09:59:20;;;;;;;6.30;3.60;;;;;;;;;;10356960;28;20100;-71
2022/08/15 10:04:23;;;;;;;4.15;3.25;;;;;;;;;;10353612;28;20064;-72
2022/08/15 10:09:33;;;;;;;3.85;3.45;;;;;;;;;;10338399;28;20449;-72
2022/08/15 10:14:40;;;;;;;4.65;3.63;;;;;;;;;;10353993;28;20053;-71
2022/08/15 10:19:41;;;;;;;4.25;3.20;;;;;;;;;;10357581;28;20042;-73
2022/08/15 10:24:42;;;;;;;4.15;2.70;;;;;;;;;;10346518;28;20046;-73
2022/08/15 10:29:49;;;;;;;4.17;3.13;;;;;;;;;;10362257;28;20061;-71
2022/08/15 10:35:02;;;;;;;5.97;3.50;;;;;;;;;;10363393;28;20141;-70
2022/08/15 10:40:17;;;;;;;6.50;3.35;;;;;;;;;;10355564;28;20041;-71
2022/08/15 10:45:41;;;;;;;5.53;3.30;;;;;;;;;;10344428;28;20058;-72
2022/08/15 10:50:42;;;;;;;5.38;4.10;;;;;;;;;;10332850;28;20050;-73
2022/08/15 10:55:44;;;;;;;5.03;4.55;;;;;;;;;;10346399;28;20449;-72
2022/08/15 11:00:45;;;;;;;;;;;;;;;;;;10361742;28;20041;-71
2022/08/15 11:05:56;;;;;;;4.32;3.58;;;;;;;;;;10362771;28;20668;-71
2022/08/15 11:11:03;;;;;;;4.70;3.77;;;;;;;;;;10362136;28;20456;-71
2022/08/15 11:16:27;;;;;;;4.57;3.95;;;;;;;;;;10356030;28;20138;-71
2022/08/15 11:21:37;;;;;;;4.55;3.97;;;;;;;;;;10343429;28;20053;-73
2022/08/15 11:26:40;;;;;;;5.30;4.00;;;;;;;;;;10352690;28;20057;-71
2022/08/15 11:31:54;;;;;;;6.43;5.82;;;;;;;;;;10359186;28;20039;-70
2022/08/15 11:36:56;;;;;;;7.55;4.38;;;;;;;;;;10353869;28;20049;-73
2022/08/15 11:42:03;;;;;;;5.57;3.92;;;;;;;;;;10357325;28;20047;-72
2022/08/15 11:47:05;;;;;;;4.50;3.70;;;;;;;;;;10348989;28;20100;-70
2022/08/15 11:52:07;;;;;;;4.25;3.30;;;;;;;;;;10358531;28;20080;-71
2022/08/15 11:57:09;;;;;;;4.28;3.17;;;;;;;;;;10357348;28;20089;-72
2022/08/15 12:02:27;;;;;;;4.90;3.50;;;;;;;;;;10357244;28;20398;-70
2022/08/15 12:07:29;;;;;;;4.28;3.55;;;;;;;;;;10335314;28;20053;-72
2022/08/15 12:12:42;;;;;;;5.45;3.67;;;;;;;;;;10326500;28;20982;-71
2022/08/15 12:18:00;;;;;;;6.05;3.20;;;;;;;;;;10355831;28;20129;-71
2022/08/15 12:23:19;;;;;;;4.07;2.92;;;;;;;;;;10350914;28;20068;-72
2022/08/15 12:28:20;;;;;;;6.88;4.50;;;;;;;;;;10358242;28;20049;-71
2022/08/15 12:33:22;;;;;;;5.07;2.90;;;;;;;;;;10357000;28;20128;-71
2022/08/15 12:38:22;;;;;;;10.10;9.07;;;;;;;;;;10344925;28;20392;-70
2022/08/15 12:43:22;;;;;;;7.70;6.90;;;;;;;;;;10343876;28;20060;-71
2022/08/15 12:48:24;;;;;;;5.47;4.20;;;;;;;;;;10358305;28;20129;-71
2022/08/15 12:53:25;;;;;;;3.08;2.70;;;;;;;;;;10353453;28;20060;-69
2022/08/15 12:58:26;;;;;;;5.43;2.80;;;;;;;;;;10359100;28;20404;-70
2022/08/15 13:03:29;;;;;;;4.30;3.10;;;;;;;;;;10364124;28;20397;-71
2022/08/15 13:08:29;;;;;;;3.15;2.60;;;;;;;;;;10359968;28;20035;-70
2022/08/15 13:13:30;;;;;;;6.27;4.60;;;;;;;;;;10359041;28;20454;-70
2022/08/15 13:18:30;;;;;;;3.73;2.67;;;;;;;;;;10370026;28;20053;-71
2022/08/15 13:23:40;;;;;;;4.03;3.37;;;;;;;;;;10353234;28;20046;-72
2022/08/15 13:28:42;;;;;;;2.83;2.35;;;;;;;;;;10362825;28;20088;-70
2022/08/15 13:33:43;;;;;;;3.08;2.30;;;;;;;;;;10347328;28;20058;-73
2022/08/15 13:38:46;;;;;;;3.30;2.43;;;;;;;;;;10355964;28;20046;-70
2022/08/15 13:43:48;;;;;;;5.85;4.50;;;;;;;;;;10360986;28;20049;-70
2022/08/15 13:48:49;;;;;;;3.58;2.33;;;;;;;;;;10354456;28;20072;-70
2022/08/15 13:53:49;;;;;;;2.70;2.50;;;;;;;;;;10358630;28;20053;-69
2022/08/15 13:58:50;;;;;;;3.80;2.37;;;;;;;;;;10363167;28;20093;-71
2022/08/15 14:03:56;;;;;;;4.43;2.33;;;;;;;;;;10365693;28;20048;-72
2022/08/15 14:08:57;;;;;;;2.88;2.30;;;;;;;;;;10366169;28;20048;-68
2022/08/15 14:13:58;;;;;;;2.50;2.30;;;;;;;;;;10360741;28;20119;-71
2022/08/15 14:18:59;;;;;;;3.60;2.20;;;;;;;;;;10348428;28;20056;-72
2022/08/15 14:24:00;;;;;;;4.10;2.40;;;;;;;;;;10356561;28;20385;-71
2022/08/15 14:29:01;;;;;;;2.85;2.10;;;;;;;;;;10358679;28;20078;-72
2022/08/15 14:34:02;;;;;;;3.35;2.10;;;;;;;;;;10355930;28;20042;-72
2022/08/15 14:39:03;;;;;;;2.53;2.20;;;;;;;;;;10364329;28;20112;-71
2022/08/15 14:44:03;;;;;;;2.28;2.00;;;;;;;;;;10364169;28;20705;-72
2022/08/15 14:49:06;;;;;;;2.35;2.13;;;;;;;;;;10361923;28;20045;-72
2022/08/15 14:54:07;;;;;;;3.17;2.10;;;;;;;;;;10362279;28;20583;-72
2022/08/15 14:59:08;;;;;;;3.92;2.95;;;;;;;;;;10359931;28;20033;-72
2022/08/15 15:04:09;;;;;;;6.63;5.50;;;;;;;;;;10353908;28;20096;-71
2022/08/15 15:09:14;;;;;;;3.15;1.80;;;;;;;;;;10353673;28;20096;-71
2022/08/15 15:14:16;;;;;;;4.97;2.67;;;;;;;;;;10359779;28;20045;-71
2022/08/15 15:19:19;;;;;;;2.85;2.25;;;;;;;;;;10333305;28;20497;-71
2022/08/15 15:24:19;;;;;;;2.97;2.00;;;;;;;;;;10354935;28;20125;-71
2022/08/15 15:29:20;;;;;;;5.30;2.00;;;;;;;;;;10361836;28;20037;-71
2022/08/15 15:34:20;;;;;;;2.30;2.10;;;;;;;;;;10360261;28;20516;-72
2022/08/15 15:39:22;;;;;;;2.73;1.87;;;;;;;;;;10361157;28;20045;-72
2022/08/15 15:44:24;;;;;;;2.65;2.17;;;;;;;;;;10360853;28;20473;-73
2022/08/15 15:49:32;;;;;;;3.30;2.58;;;;;;;;;;10357518;28;20729;-73
2022/08/15 15:54:32;;;;;;;2.30;2.10;;;;;;;;;;10352922;28;20402;-71
2022/08/15 15:59:33;;;;;;;2.47;2.27;;;;;;;;;;10347396;28;20049;-70
2022/08/15 16:04:33;;;;;;;2.87;1.93;;;;;;;;;;10323732;28;20081;-73
2022/08/15 16:09:34;;;;;;;3.87;2.63;;;;;;;;;;10357915;28;20072;-70
2022/08/15 16:14:56;;;;;;;2.60;2.33;;;;;;;;;;10363104;28;20061;-73
2022/08/15 16:20:03;;;;;;;3.45;2.35;;;;;;;;;;10357095;28;20052;-71
2022/08/15 16:25:08;;;;;;;2.38;2.17;;;;;;;;;;10354710;28;20061;-72
2022/08/15 16:30:13;;;;;;;3.00;2.10;;;;;;;;;;10357491;28;20398;-72
2022/08/15 16:35:17;;;;;;;2.80;2.50;;;;;;;;;;10358158;28;20097;-71
2022/08/15 16:40:26;;;;;;;2.25;2.05;;;;;;;;;;10346311;28;20041;-75
2022/08/15 16:45:31;;;;;;;2.78;2.40;;;;;;;;;;10365246;28;20049;-75
2022/08/15 16:50:40;;;;;;;2.30;2.10;;;;;;;;;;10357992;28;20041;-72
2022/08/15 16:56:03;;;;;;;2.58;2.38;;;;;;;;;;10363979;28;20041;-71
2022/08/15 17:01:13;;;;;;;3.88;2.30;;;;;;;;;;10362913;28;20045;-72
2022/08/15 17:06:24;;;;;;;2.00;1.90;;;;;;;;;;10360583;28;20045;-71
2022/08/15 17:11:36;;;;;;;2.85;2.55;;;;;;;;;;10359570;28;20038;-72
2022/08/15 17:17:15;;;;;;;6.97;6.23;;;;;;;;;;10356590;28;20077;-71
2022/08/15 17:22:19;;;;;;;3.25;2.28;;;;;;;;;;10175725;28;20040;-74
2022/08/15 17:27:23;;;;;;;2.38;2.17;;;;;;;;;;10326072;28;20130;-71
2022/08/15 17:32:25;;;;;;;3.58;2.20;;;;;;;;;;10353734;28;20125;-70
2022/08/15 17:37:25;;;;;;;2.92;2.50;;;;;;;;;;10354985;28;20050;-73
2022/08/15 17:42:27;;;;;;;2.50;2.27;;;;;;;;;;10363816;28;20056;-72
2022/08/15 17:47:33;;;;;;;3.92;2.55;;;;;;;;;;10359429;28;20038;-71
2022/08/15 17:52:37;;;;;;;2.72;2.38;;;;;;;;;;10344208;28;20060;-71
2022/08/15 17:57:43;;;;;;;2.80;2.47;;;;;;;;;;10364646;28;20129;-72
2022/08/15 18:02:46;;;;;;;2.50;2.30;;;;;;;;;;10315228;28;20046;-69
2022/08/15 18:07:46;;;;;;;5.57;3.08;;;;;;;;;;10351594;28;20145;-73
2022/08/15 18:12:47;;;;;;;3.83;2.80;;;;;;;;;;10357016;28;20060;-71
2022/08/15 18:17:54;;;;;;;5.70;5.00;;;;;;;;;;10351930;28;20050;-70
2022/08/15 18:22:56;;;;;;;3.38;2.67;;;;;;;;;;10356409;28;20049;-71
2022/08/15 18:27:59;;;;;;;4.00;2.70;;;;;;;;;;10340725;28;20048;-72
2022/08/15 18:33:04;;;;;;;3.38;2.90;;;;;;;;;;10356892;28;20046;-70
2022/08/15 18:38:07;;;;;;;3.85;2.45;;;;;;;;;;10347470;28;20082;-70
2022/08/15 18:43:08;;;;;;;3.20;2.90;;;;;;;;;;10355834;28;20052;-71
2022/08/15 18:48:16;;;;;;;3.35;3.05;;;;;;;;;;10361505;28;20037;-70
2022/08/15 18:53:21;;;;;;;3.42;2.90;;;;;;;;;;10355987;28;20275;-70
2022/08/15 18:58:22;;;;;;;6.53;3.55;;;;;;;;;;10362690;28;20042;-74
2022/08/15 19:03:23;;;;;;;4.82;3.50;;;;;;;;;;10353570;28;20052;-73
2022/08/15 19:08:24;;;;;;;3.83;3.10;;;;;;;;;;10357340;28;20046;-73
2022/08/15 19:13:42;;;;;;;3.40;3.05;;;;;;;;;;10351283;28;20058;-72
2022/08/15 19:18:47;;;;;;;4.63;3.15;;;;;;;;;;10355106;28;20041;-71
2022/08/15 19:23:50;;;;;;;4.95;3.38;;;;;;;;;;10340032;28;20042;-71
2022/08/15 19:28:56;;;;;;;5.03;3.33;;;;;;;;;;10306394;28;20054;-72
2022/08/15 19:34:17;;;;;;;4.78;3.00;;;;;;;;;;10343549;28;20109;-71
2022/08/15 19:39:34;;;;;;;5.07;2.97;;;;;;;;;;10337689;28;20052;-72
2022/08/15 19:44:50;;;;;;;3.22;2.15;;;;;;;;;;10356624;28;20050;-71
2022/08/15 19:55:21;;;;;;;3.95;3.15;;;;;;;;;;10346464;28;20535;-71
2022/08/15 20:00:26;;;;;;;4.68;2.85;;;;;;;;;;10353990;28;20133;-72
2022/08/15 20:05:45;;;;;;;6.55;3.50;;;;;;;;;;10353786;28;20045;-70
2022/08/15 20:10:51;;;;;;;5.40;3.28;;;;;;;;;;10355452;28;20137;-71
2022/08/15 20:16:12;;;;;;;4.45;3.30;;;;;;;;;;10342725;28;20710;-71
2022/08/15 20:21:20;;;;;;;3.92;3.20;;;;;;;;;;10332622;28;20073;-71
2022/08/15 20:26:25;;;;;;;4.20;3.22;;;;;;;;;;10340210;28;20042;-72
2022/08/15 20:31:43;;;;;;;4.47;3.08;;;;;;;;;;10345534;28;20046;-71
2022/08/15 20:36:46;;;;;;;4.25;3.10;;;;;;;;;;10355094;28;20212;-73
2022/08/15 20:41:59;;;;;;;4.05;3.10;;;;;;;;;;10358158;28;20054;-72
2022/08/15 20:47:03;;;;;;;5.68;3.65;;;;;;;;;;10356854;28;20049;-71
2022/08/15 20:52:05;;;;;;;5.32;3.47;;;;;;;;;;10341337;28;20042;-73
2022/08/15 20:57:08;;;;;;;4.00;3.60;;;;;;;;;;10352616;28;20061;-73
2022/08/15 21:02:27;;;;;;;5.43;3.72;;;;;;;;;;10353212;28;20065;-71
2022/08/15 21:07:48;;;;;;;4.90;3.60;;;;;;;;;;10345724;28;20042;-71
2022/08/15 21:12:54;;;;;;;3.92;3.30;;;;;;;;;;10350919;28;20064;-71
2022/08/15 21:18:02;;;;;;;4.78;3.70;;;;;;;;;;10333167;28;20252;-72
2022/08/15 21:23:11;;;;;;;3.88;3.45;;;;;;;;;;10362249;28;20041;-72
2022/08/15 21:28:24;;;;;;;7.75;3.90;;;;;;;;;;10359048;28;20050;-71
2022/08/15 21:33:24;;;;;;;;;;;;;;;;;;10360144;28;20839;-72
2022/08/15 21:38:43;;;;;;;4.05;3.35;;;;;;;;;;10361300;28;19922;-71
2022/08/15 21:44:04;;;;;;;4.82;3.45;;;;;;;;;;10355932;28;20053;-72
2022/08/15 21:49:04;;;;;;;4.10;3.40;;;;;;;;;;10360829;28;20046;-72
2022/08/15 21:54:14;;;;;;;4.17;3.30;;;;;;;;;;10351293;28;20053;-72
2022/08/15 21:59:23;;;;;;;3.88;3.20;;;;;;;;;;10359250;28;20046;-72
2022/08/15 22:04:35;;;;;;;5.47;3.22;;;;;;;;;;10358345;28;20409;-72
2022/08/15 22:09:37;;;;;;;3.25;2.95;;;;;;;;;;10359244;28;20050;-70
2022/08/15 22:14:38;;;;;;;6.07;2.75;;;;;;;;;;10349747;28;20121;-70
2022/08/15 22:19:38;;;;;;;3.20;2.90;;;;;;;;;;10357340;28;20041;-72
2022/08/15 22:24:39;;;;;;;3.72;2.80;;;;;;;;;;10358971;28;20049;-71
2022/08/15 22:29:41;;;;;;;3.72;3.10;;;;;;;;;;10353773;28;20045;-71
2022/08/15 22:34:42;;;;;;;3.28;2.90;;;;;;;;;;10354764;28;20485;-71
2022/08/15 22:39:42;;;;;;;4.68;2.83;;;;;;;;;;10349831;28;20048;-71
2022/08/15 22:44:43;;;;;;;5.27;2.90;;;;;;;;;;10354613;28;20073;-70
2022/08/15 22:49:44;;;;;;;3.65;2.60;;;;;;;;;;10356655;28;20166;-71
2022/08/15 22:54:45;;;;;;;3.30;2.75;;;;;;;;;;10356875;28;20050;-72
2022/08/15 22:59:47;;;;;;;3.03;2.72;;;;;;;;;;10356133;28;20068;-71
2022/08/15 23:04:52;;;;;;;3.53;2.80;;;;;;;;;;10354520;28;20421;-71
2022/08/15 23:09:55;;;;;;;3.08;2.67;;;;;;;;;;10352164;28;20121;-73
2022/08/15 23:14:57;;;;;;;3.60;2.70;;;;;;;;;;10352249;28;20054;-71
2022/08/15 23:20:15;;;;;;;2.95;2.60;;;;;;;;;;10350321;28;20049;-71
2022/08/15 23:25:18;;;;;;;4.20;2.80;;;;;;;;;;10350047;28;20152;-70
2022/08/15 23:30:21;;;;;;;2.70;2.50;;;;;;;;;;10341553;28;20045;-71
2022/08/15 23:35:22;;;;;;;3.83;2.80;;;;;;;;;;10356932;28;20136;-71
2022/08/15 23:40:32;;;;;;;3.47;2.92;;;;;;;;;;10349023;28;20097;-70
2022/08/15 23:45:37;;;;;;;3.03;2.67;;;;;;;;;;10353327;28;20128;-72
2022/08/15 23:50:38;;;;;;;3.53;2.95;;;;;;;;;;10351409;28;20052;-71
2022/08/15 23:55:40;;;;;;;3.45;3.15;;;;;;;;;;10348291;28;20181;-70
